createdAt,value
2022-09-09T00:00:27.185Z,80.30859375
2022-09-09T00:01:28.901Z,80.38476563
2022-09-09T00:02:25.059Z,80.14550781
2022-09-09T00:03:29.784Z,80.15625
2022-09-09T00:05:18.899Z,80.04101563
2022-09-09T00:05:58.519Z,79.81640625
2022-09-09T00:06:58.664Z,79.79003906
2022-09-09T00:08:00.086Z,79.73339844
2022-09-09T00:08:56.440Z,79.65625
2022-09-09T00:09:58.993Z,79.66699219
2022-09-09T00:10:55.287Z,79.75976563
2022-09-09T00:11:57.715Z,79.25878906
2022-09-09T00:13:00.031Z,79.51660156
2022-09-09T00:14:01.249Z,79.42382813
2022-09-09T00:15:00.005Z,79.62304688
2022-09-09T00:15:57.433Z,79.69140625
2022-09-09T00:17:03.405Z,79.34765625
2022-09-09T00:18:01.445Z,79.94140625
2022-09-09T00:20:01.250Z,79.75097656
2022-09-09T00:21:02.481Z,79.58886719
2022-09-09T00:22:03.364Z,79.62792969
2022-09-09T00:23:04.375Z,79.59472656
2022-09-09T00:24:02.358Z,79.57128906
2022-09-09T00:25:02.856Z,79.38183594
2022-09-09T00:26:03.072Z,79.53710938
2022-09-09T00:27:03.495Z,79.63769531
2022-09-09T00:28:05.507Z,79.41308594
2022-09-09T00:30:09.809Z,79.85058594
2022-09-09T00:31:06.229Z,79.95117188
2022-09-09T00:32:02.670Z,79.90527344
2022-09-09T00:33:13.914Z,79.90234375
2022-09-09T00:35:06.149Z,79.82617188
2022-09-09T00:36:08.785Z,79.95898438
2022-09-09T00:37:10.751Z,80.03320313
2022-09-09T00:38:12.550Z,79.99609375
2022-09-09T00:40:11.656Z,80.20800781
2022-09-09T00:41:14.045Z,79.92285156
2022-09-09T00:42:10.137Z,79.67382813
2022-09-09T00:43:18.217Z,79.56347656
2022-09-09T00:44:22.087Z,79.61035156
2022-09-09T00:45:20.775Z,79.46191406
2022-09-09T00:46:23.010Z,79.265625
2022-09-09T00:47:26.543Z,79.3671875
2022-09-09T00:48:21.482Z,79.33398438
2022-09-09T00:50:57.828Z,78.72070313
2022-09-09T00:51:59.755Z,78.4921875
2022-09-09T00:53:04.099Z,78.421875
2022-09-09T00:54:52.193Z,78.26269531
2022-09-09T00:55:40.908Z,78.15136719
2022-09-09T00:56:42.455Z,78.55957031
2022-09-09T00:57:40.912Z,78.48730469
2022-09-09T00:59:41.657Z,78.56640625
2022-09-09T01:00:42.040Z,78.96875
2022-09-09T01:01:46.720Z,79.3046875
2022-09-09T01:02:41.110Z,79.31542969
2022-09-09T01:03:41.734Z,79.37695313
2022-09-09T01:04:47.672Z,79.26855469
2022-09-09T01:05:43.148Z,79.4609375
2022-09-09T01:06:43.580Z,79.50683594
2022-09-09T01:07:43.562Z,79.81152344
2022-09-09T01:08:45.175Z,79.84667969
2022-09-09T01:09:43.111Z,79.84179688
2022-09-09T01:10:47.697Z,79.83105469
2022-09-09T01:11:46.183Z,79.52441406
2022-09-09T01:12:51.252Z,79.51171875
2022-09-09T01:14:46.410Z,79.40429688
2022-09-09T01:15:49.759Z,79.68847656
2022-09-09T01:16:45.222Z,79.49511719
2022-09-09T01:17:49.807Z,79.38378906
2022-09-09T01:18:44.213Z,79.41894531
2022-09-09T01:19:45.688Z,79.21679688
2022-09-09T01:20:42.225Z,79.1015625
2022-09-09T01:21:49.381Z,79.23730469
2022-09-09T01:22:43.821Z,79.17773438
2022-09-09T01:24:41.453Z,79.41796875
2022-09-09T01:25:42.227Z,78.92773438
2022-09-09T01:26:42.221Z,79.02832031
2022-09-09T01:27:49.106Z,79.16308594
2022-09-09T01:28:48.552Z,79.11621094
2022-09-09T01:29:47.756Z,79.15332031
2022-09-09T01:30:46.528Z,79.06152344
2022-09-09T01:32:30.421Z,79.02734375
2022-09-09T01:33:11.729Z,78.65527344
2022-09-09T01:34:09.771Z,78.56152344
2022-09-09T01:35:08.928Z,78.640625
2022-09-09T01:36:04.426Z,78.74023438
2022-09-09T01:37:04.697Z,78.63476563
2022-09-09T01:38:06.706Z,78.67773438
2022-09-09T01:39:08.722Z,78.85839844
2022-09-09T01:40:09.221Z,78.80957031
2022-09-09T01:41:05.583Z,78.97851563
2022-09-09T01:42:04.780Z,78.98828125
2022-09-09T01:43:07.399Z,79.22460938
2022-09-09T01:44:56.978Z,79.05078125
2022-09-09T01:45:56.327Z,79.12890625
2022-09-09T01:46:51.697Z,79.28417969
2022-09-09T01:47:50.882Z,79.3984375
2022-09-09T01:48:46.059Z,79.50390625
2022-09-09T01:49:50.490Z,79.50488281
2022-09-09T01:50:43.855Z,79.51660156
2022-09-09T01:51:40.820Z,79.58398438
2022-09-09T01:52:44.406Z,79.41601563
2022-09-09T01:53:47.269Z,79.40917969
2022-09-09T01:54:42.451Z,79.48242188
2022-09-09T01:55:42.123Z,79.1171875
2022-09-09T01:56:37.356Z,79.25390625
2022-09-09T01:57:36.914Z,79.25195313
2022-09-09T01:58:31.799Z,79.21777344
2022-09-09T01:59:31.875Z,79.21777344
2022-09-09T02:00:27.331Z,78.91015625
2022-09-09T02:01:29.483Z,79.0546875
2022-09-09T02:02:22.259Z,79.06445313
2022-09-09T02:04:35.362Z,78.96679688
2022-09-09T02:05:21.160Z,78.60546875
2022-09-09T02:08:03.455Z,78.62304688
2022-09-09T02:08:23.788Z,78.76660156
2022-09-09T02:09:25.873Z,78.26367188
2022-09-09T02:10:25.504Z,78.25683594
2022-09-09T02:11:26.975Z,78.01367188
2022-09-09T02:12:22.266Z,78.30175781
2022-09-09T02:13:20.023Z,78.20605469
2022-09-09T02:14:22.834Z,78.04199219
2022-09-09T02:15:20.967Z,78.29492188
2022-09-09T02:16:16.265Z,78.59570313
2022-09-09T02:17:19.736Z,78.671875
2022-09-09T02:18:18.932Z,78.5859375
2022-09-09T02:20:17.700Z,78.62988281
2022-09-09T02:21:13.309Z,78.59277344
2022-09-09T02:22:14.667Z,78.61523438
2022-09-09T02:23:10.906Z,78.46289063
2022-09-09T02:24:11.084Z,78.35058594
2022-09-09T02:25:05.774Z,78.49804688
2022-09-09T02:26:09.418Z,78.3125
2022-09-09T02:27:07.526Z,78.69628906
2022-09-09T02:28:02.742Z,78.46972656
2022-09-09T02:29:10.919Z,78.43652344
2022-09-09T02:30:13.598Z,78.7265625
2022-09-09T02:31:09.423Z,78.77246094
2022-09-09T02:32:12.385Z,78.82617188
2022-09-09T02:33:04.634Z,78.61035156
2022-09-09T02:34:07.209Z,78.60742188
2022-09-09T02:35:03.028Z,78.46972656
2022-09-09T02:36:00.736Z,78.53613281
2022-09-09T02:37:02.576Z,78.65917969
2022-09-09T02:38:28.004Z,78.59765625
2022-09-09T02:40:09.374Z,78.86132813
2022-09-09T02:41:12.443Z,78.9765625
2022-09-09T02:42:08.624Z,78.98632813
2022-09-09T02:43:10.794Z,79.0625
2022-09-09T02:45:13.702Z,79.30078125
2022-09-09T02:46:13.545Z,79.43359375
2022-09-09T02:47:09.941Z,79.6796875
2022-09-09T02:48:11.061Z,79.60058594
2022-09-09T02:50:09.091Z,79.63964844
2022-09-09T02:51:08.285Z,79.71777344
2022-09-09T02:52:11.082Z,79.83886719
2022-09-09T02:53:10.442Z,79.79882813
2022-09-09T02:54:05.572Z,79.65625
2022-09-09T02:55:04.922Z,79.72753906
2022-09-09T02:56:06.190Z,79.78222656
2022-09-09T02:57:04.337Z,79.8046875
2022-09-09T02:58:05.990Z,79.72363281
2022-09-09T02:59:02.759Z,79.63964844
2022-09-09T03:00:04.029Z,79.82128906
2022-09-09T03:01:03.175Z,79.68359375
2022-09-09T03:02:04.242Z,79.94140625
2022-09-09T03:03:00.528Z,79.81445313
2022-09-09T03:04:01.763Z,79.96972656
2022-09-09T03:04:59.056Z,79.65917969
2022-09-09T03:06:00.535Z,79.57324219
2022-09-09T03:06:56.483Z,79.67382813
2022-09-09T03:07:58.433Z,79.63964844
2022-09-09T03:08:53.811Z,79.81152344
2022-09-09T03:09:54.963Z,79.78710938
2022-09-09T03:10:51.655Z,79.85351563
2022-09-09T03:12:00.304Z,79.84082031
2022-09-09T03:12:59.712Z,79.86035156
2022-09-09T03:15:02.682Z,80.17773438
2022-09-09T03:16:01.922Z,80.16601563
2022-09-09T03:17:05.673Z,80.09863281
2022-09-09T03:18:03.434Z,80.00585938
2022-09-09T03:18:59.824Z,79.80664063
2022-09-09T03:20:02.291Z,79.98925781
2022-09-09T03:20:58.543Z,80.12207031
2022-09-09T03:22:28.953Z,80.16601563
2022-09-09T03:23:15.694Z,79.8515625
2022-09-09T03:24:13.503Z,80.03027344
2022-09-09T03:25:11.679Z,79.9296875
2022-09-09T03:26:08.897Z,79.93945313
2022-09-09T03:27:09.645Z,79.8046875
2022-09-09T03:28:05.523Z,80.01367188
2022-09-09T03:29:07.970Z,79.95214844
2022-09-09T03:30:07.373Z,80.03808594
2022-09-09T03:31:04.678Z,80.03515625
2022-09-09T03:32:07.054Z,79.86523438
2022-09-09T03:33:02.414Z,79.83691406
2022-09-09T03:34:05.892Z,79.80859375
2022-09-09T03:35:04.108Z,79.91796875
2022-09-09T03:36:04.904Z,79.8828125
2022-09-09T03:37:01.404Z,79.99414063
2022-09-09T03:38:05.722Z,79.890625
2022-09-09T03:39:59.066Z,79.81152344
2022-09-09T03:40:57.085Z,79.88085938
2022-09-09T03:42:02.794Z,79.96875
2022-09-09T03:43:03.087Z,79.49511719
2022-09-09T03:44:07.475Z,79.49707031
2022-09-09T03:45:00.323Z,79.76953125
2022-09-09T03:46:03.300Z,80.03710938
2022-09-09T03:46:59.568Z,80.09375
2022-09-09T03:47:58.706Z,79.90234375
2022-09-09T03:49:02.909Z,79.85351563
2022-09-09T03:49:57.282Z,80.08007813
2022-09-09T03:50:59.013Z,80.03320313
2022-09-09T03:51:59.638Z,79.984375
2022-09-09T03:52:55.729Z,79.56835938
2022-09-09T03:54:52.299Z,79.71777344
2022-09-09T03:55:54.988Z,79.35253906
2022-09-09T03:56:48.679Z,79.3203125
2022-09-09T03:57:55.780Z,79.60351563
2022-09-09T03:58:51.023Z,79.64257813
2022-09-09T03:59:57.265Z,79.86816406
2022-09-09T04:00:50.878Z,79.82421875
2022-09-09T04:02:38.939Z,79.83691406
2022-09-09T04:03:17.863Z,79.35839844
2022-09-09T04:04:22.311Z,78.94238281
2022-09-09T04:05:16.753Z,78.65820313
2022-09-09T04:06:20.726Z,79.01367188
2022-09-09T04:07:20.053Z,79.24902344
2022-09-09T04:08:20.658Z,79.26367188
2022-09-09T04:10:17.379Z,79.30371094
2022-09-09T04:11:19.962Z,78.95507813
2022-09-09T04:12:17.378Z,78.79785156
2022-09-09T04:13:21.395Z,78.58007813
2022-09-09T04:14:16.748Z,78.96484375
2022-09-09T04:15:17.699Z,79.13183594
2022-09-09T04:16:13.175Z,79.2421875
2022-09-09T04:17:13.575Z,79.42089844
2022-09-09T04:18:08.641Z,79.58007813
2022-09-09T04:19:17.749Z,79.48535156
2022-09-09T04:20:15.250Z,79.65429688
2022-09-09T04:21:13.289Z,79.45996094
2022-09-09T04:22:13.469Z,79.51269531
2022-09-09T04:23:11.547Z,79.62792969
2022-09-09T04:24:12.268Z,79.21484375
2022-09-09T04:25:11.668Z,78.98144531
2022-09-09T04:26:16.557Z,79.12695313
2022-09-09T04:27:04.438Z,79.14550781
2022-09-09T04:28:10.711Z,79.43847656
2022-09-09T04:30:04.108Z,79.06445313
2022-09-09T04:30:58.833Z,79.42578125
2022-09-09T04:32:03.978Z,78.99804688
2022-09-09T04:33:07.005Z,78.81933594
2022-09-09T04:35:11.805Z,78.87597656
2022-09-09T04:36:03.761Z,78.96191406
2022-09-09T04:37:06.246Z,78.93945313
2022-09-09T04:38:01.650Z,79.15332031
2022-09-09T04:39:03.809Z,79.27929688
2022-09-09T04:40:02.031Z,79.1875
2022-09-09T04:41:06.198Z,79.11914063
2022-09-09T04:42:05.744Z,79.3984375
2022-09-09T04:43:05.200Z,79.21289063
2022-09-09T04:44:09.660Z,79.36914063
2022-09-09T04:45:04.365Z,79.0078125
2022-09-09T04:46:06.390Z,79.09960938
2022-09-09T04:47:07.842Z,79.16015625
2022-09-09T04:48:01.204Z,79.13671875
2022-09-09T04:49:06.002Z,79.02636719
2022-09-09T04:50:02.001Z,78.96386719
2022-09-09T04:51:06.996Z,79.40625
2022-09-09T04:51:58.835Z,79.72265625
2022-09-09T04:53:01.204Z,79.77929688
2022-09-09T04:54:44.866Z,79.25878906
2022-09-09T04:55:31.704Z,78.88183594
2022-09-09T04:56:29.748Z,79.05761719
2022-09-09T04:57:31.384Z,79.03417969
2022-09-09T04:58:32.670Z,78.77539063
2022-09-09T04:59:28.817Z,78.93261719
2022-09-09T05:00:30.989Z,79.14160156
2022-09-09T05:01:29.083Z,79.15136719
2022-09-09T05:02:31.488Z,79.26464844
2022-09-09T05:03:23.727Z,79.06054688
2022-09-09T05:05:20.242Z,79.42382813
2022-09-09T05:06:27.874Z,79.44628906
2022-09-09T05:07:21.129Z,79.45507813
2022-09-09T05:08:20.285Z,79.72558594
2022-09-09T05:09:14.999Z,79.64746094
2022-09-09T05:10:16.389Z,79.65429688
2022-09-09T05:11:10.794Z,79.64257813
2022-09-09T05:12:11.941Z,79.58398438
2022-09-09T05:13:06.468Z,79.61523438
2022-09-09T05:14:05.959Z,79.890625
2022-09-09T05:15:02.262Z,79.96386719
2022-09-09T05:16:04.432Z,79.95214844
2022-09-09T05:17:03.275Z,80.01855469
2022-09-09T05:18:01.504Z,80.01367188
2022-09-09T05:19:03.538Z,80.04003906
2022-09-09T05:19:57.907Z,80.20800781
2022-09-09T05:20:57.543Z,79.88964844
2022-09-09T05:21:52.847Z,80.10351563
2022-09-09T05:22:57.567Z,80.22753906
2022-09-09T05:23:58.815Z,79.57128906
2022-09-09T05:24:54.307Z,79.86328125
2022-09-09T05:25:53.526Z,80.03027344
2022-09-09T05:26:49.564Z,80.53125
2022-09-09T05:27:50.813Z,80.45117188
2022-09-09T05:30:04.165Z,79.99902344
2022-09-09T05:30:59.215Z,79.59082031
2022-09-09T05:32:00.705Z,79.49023438
2022-09-09T05:32:55.659Z,79.62011719
2022-09-09T05:34:55.030Z,79.64160156
2022-09-09T05:36:26.665Z,79.84570313
2022-09-09T05:37:07.000Z,79.30664063
2022-09-09T05:38:05.286Z,79.09570313
2022-09-09T05:39:59.967Z,79.39746094
2022-09-09T05:41:00.324Z,79.10058594
2022-09-09T05:41:56.690Z,79.42382813
2022-09-09T05:42:57.087Z,78.96777344
2022-09-09T05:43:52.467Z,79.671875
2022-09-09T05:44:54.343Z,79.48730469
2022-09-09T05:45:49.951Z,79.37207031
2022-09-09T05:46:50.207Z,79.57617188
2022-09-09T05:47:46.493Z,79.75585938
2022-09-09T05:48:45.842Z,79.83691406
2022-09-09T05:50:45.908Z,79.89257813
2022-09-09T05:51:40.046Z,79.58398438
2022-09-09T05:52:39.532Z,79.71289063
2022-09-09T05:53:38.754Z,79.86035156
2022-09-09T05:54:38.370Z,79.98828125
2022-09-09T05:55:33.680Z,80.29296875
2022-09-09T05:56:38.376Z,80.22460938
2022-09-09T05:57:31.008Z,80.54199219
2022-09-09T05:58:32.903Z,80.03320313
2022-09-09T06:00:36.945Z,80.20898438
2022-09-09T06:01:32.216Z,80.09472656
2022-09-09T06:02:35.437Z,80.09667969
2022-09-09T06:03:27.898Z,79.73535156
2022-09-09T06:04:31.431Z,79.93457031
2022-09-09T06:05:23.866Z,79.7265625
2022-09-09T06:06:25.933Z,79.86621094
2022-09-09T06:07:18.619Z,80.20898438
2022-09-09T06:08:20.593Z,80.1875
2022-09-09T06:09:22.699Z,80.38085938
2022-09-09T06:10:17.244Z,80.24414063
2022-09-09T06:11:19.666Z,80.1328125
2022-09-09T06:12:14.549Z,80.04980469
2022-09-09T06:13:16.369Z,80.02832031
2022-09-09T06:15:00.480Z,79.86523438
2022-09-09T06:15:40.040Z,79.40234375
2022-09-09T06:16:40.575Z,79.45410156
2022-09-09T06:17:35.922Z,79.19628906
2022-09-09T06:18:35.019Z,78.97753906
2022-09-09T06:19:33.958Z,79.74511719
2022-09-09T06:20:29.261Z,80.01757813
2022-09-09T06:21:31.242Z,79.83398438
2022-09-09T06:22:26.481Z,80.06933594
2022-09-09T06:23:27.797Z,79.98925781
2022-09-09T06:25:25.135Z,80.35253906
2022-09-09T06:26:26.750Z,80.11621094
2022-09-09T06:27:23.701Z,80.1796875
2022-09-09T06:28:24.850Z,79.88574219
2022-09-09T06:29:25.105Z,79.99121094
2022-09-09T06:30:18.677Z,79.54882813
2022-09-09T06:31:21.213Z,79.90332031
2022-09-09T06:32:15.657Z,79.984375
2022-09-09T06:33:17.020Z,80.17773438
2022-09-09T06:34:12.518Z,80.15820313
2022-09-09T06:35:10.425Z,80.15820313
2022-09-09T06:36:17.254Z,80.3515625
2022-09-09T06:37:09.564Z,79.70898438
2022-09-09T06:38:14.379Z,79.80761719
2022-09-09T06:40:05.800Z,79.71679688
2022-09-09T06:41:06.449Z,79.94628906
2022-09-09T06:42:00.798Z,79.58105469
2022-09-09T06:43:03.128Z,79.69433594
2022-09-09T06:43:58.901Z,79.36621094
2022-09-09T06:45:01.864Z,78.73339844
2022-09-09T06:45:54.834Z,78.80957031
2022-09-09T06:46:59.250Z,78.95898438
2022-09-09T06:47:51.345Z,79.45117188
2022-09-09T06:48:53.370Z,79.29199219
2022-09-09T06:49:48.618Z,79.41699219
2022-09-09T06:50:50.381Z,78.97558594
2022-09-09T06:51:44.699Z,78.11425781
2022-09-09T06:52:43.110Z,77.85351563
2022-09-09T06:54:26.702Z,77.6171875
2022-09-09T06:55:05.745Z,77.33300781
2022-09-09T06:56:16.028Z,77.49023438
2022-09-09T06:56:18.034Z,77.49023438
2022-09-09T06:57:36.891Z,76.85644531
2022-09-09T06:57:38.121Z,76.85644531
2022-09-09T06:57:38.323Z,76.85644531
2022-09-09T06:58:09.080Z,76.5859375
2022-09-09T06:59:08.627Z,76.75292969
2022-09-09T07:00:05.205Z,77.01953125
2022-09-09T07:01:05.228Z,76.70800781
2022-09-09T07:01:59.964Z,76.98925781
2022-09-09T07:02:59.437Z,77.08789063
2022-09-09T07:03:54.010Z,78.14453125
2022-09-09T07:04:54.300Z,77.91699219
2022-09-09T07:05:48.948Z,77.99804688
2022-09-09T07:06:48.529Z,78
2022-09-09T07:07:43.757Z,77.625
2022-09-09T07:08:55.367Z,77.55273438
2022-09-09T07:08:56.177Z,77.55273438
2022-09-09T07:09:40.806Z,77.58203125
2022-09-09T07:10:36.048Z,77.77050781
2022-09-09T07:11:35.409Z,78.22558594
2022-09-09T07:12:30.888Z,77.20214844
2022-09-09T07:13:29.865Z,76.79882813
2022-09-09T07:15:24.124Z,77.18066406
2022-09-09T07:16:19.833Z,76.72460938
2022-09-09T07:17:19.352Z,76.56347656
2022-09-09T07:18:14.431Z,76.9375
2022-09-09T07:19:15.192Z,76.76464844
2022-09-09T07:20:09.802Z,76.87597656
2022-09-09T07:21:09.577Z,77.27539063
2022-09-09T07:22:06.097Z,76.87597656
2022-09-09T07:23:04.636Z,77.21679688
2022-09-09T07:24:02.518Z,76.82226563
2022-09-09T07:24:57.686Z,76.45800781
2022-09-09T07:26:00.181Z,76.6328125
2022-09-09T07:26:53.106Z,76.92578125
2022-09-09T07:27:55.678Z,76.36425781
2022-09-09T07:28:48.752Z,75.79394531
2022-09-09T07:29:48.576Z,75.64648438
2022-09-09T07:30:47.100Z,76.01660156
2022-09-09T07:31:42.851Z,76.05761719
2022-09-09T07:32:43.711Z,75.57519531
2022-09-09T07:33:39.501Z,75.41210938
2022-09-09T07:34:42.747Z,75.71484375
2022-09-09T07:35:37.197Z,75.203125
2022-09-09T07:37:14.914Z,74.75292969
2022-09-09T07:37:55.138Z,74.87402344
2022-09-09T07:38:53.234Z,75.01171875
2022-09-09T07:39:51.195Z,74.68945313
2022-09-09T07:40:51.462Z,74.72265625
2022-09-09T07:41:46.706Z,73.43164063
2022-09-09T07:42:45.025Z,74.09765625
2022-09-09T07:43:44.596Z,74.63183594
2022-09-09T07:45:37.454Z,74.11914063
2022-09-09T07:46:37.627Z,74.28027344
2022-09-09T07:47:32.985Z,74.27441406
2022-09-09T07:48:30.313Z,74.00292969
2022-09-09T07:50:25.725Z,74.9765625
2022-09-09T07:51:23.700Z,75.43652344
2022-09-09T07:52:23.558Z,74.11230469
2022-09-09T07:53:23.813Z,73.48632813
2022-09-09T07:55:21.323Z,73.85644531
2022-09-09T07:56:13.761Z,73.4453125
2022-09-09T07:57:16.026Z,73.0390625
2022-09-09T07:58:08.739Z,73.55957031
2022-09-09T08:00:02.960Z,73.64648438
2022-09-09T08:00:59.905Z,73.61230469
2022-09-09T08:01:59.005Z,73.61914063
2022-09-09T08:02:56.522Z,73.20996094
2022-09-09T08:03:56.365Z,73.02539063
2022-09-09T08:03:56.720Z,73.02539063
2022-09-09T08:05:46.672Z,74.34277344
2022-09-09T08:06:47.941Z,74.03417969
2022-09-09T08:07:44.588Z,74.37011719
2022-09-09T08:08:48.609Z,74.04101563
2022-09-09T08:10:45.699Z,72.99414063
2022-09-09T08:11:40.932Z,73.39355469
2022-09-09T08:12:42.135Z,73.36132813
2022-09-09T08:13:01.397Z,73.36132813
2022-09-09T08:13:07.926Z,73.36132813
2022-09-09T08:13:39.474Z,73.1640625
2022-09-09T08:15:36.978Z,71.92871094
2022-09-09T08:16:35.530Z,70.6640625
2022-09-09T08:18:12.981Z,70.81640625
2022-09-09T08:18:53.072Z,71.71972656
2022-09-09T08:19:50.980Z,70.88574219
2022-09-09T08:20:50.150Z,70.91503906
2022-09-09T08:21:46.605Z,71.08398438
2022-09-09T08:22:44.476Z,71.32714844
2022-09-09T08:23:42.595Z,70.80957031
2022-09-09T08:25:38.160Z,70.66210938
2022-09-09T08:26:35.659Z,70.640625
2022-09-09T08:27:38.294Z,71.09863281
2022-09-09T08:28:33.491Z,69.93652344
2022-09-09T08:30:31.559Z,70.31542969
2022-09-09T08:31:26.010Z,70.48242188
2022-09-09T08:32:28.424Z,71.65625
2022-09-09T08:33:23.063Z,70.54101563
2022-09-09T08:34:25.672Z,70.53710938
2022-09-09T08:35:17.495Z,70.48828125
2022-09-09T08:36:16.501Z,71.64941406
2022-09-09T08:37:11.215Z,71.89648438
2022-09-09T08:38:11.286Z,71.73535156
2022-09-09T08:39:07.675Z,71.39648438
2022-09-09T08:40:09.386Z,71.68066406
2022-09-09T08:41:01.542Z,71.78320313
2022-09-09T08:42:00.215Z,71.42773438
2022-09-09T08:42:54.781Z,71.21972656
2022-09-09T08:43:54.953Z,71.3359375
2022-09-09T08:45:51.908Z,70.39550781
2022-09-09T08:46:43.745Z,70.30957031
2022-09-09T08:47:40.176Z,69.65527344
2022-09-09T08:48:39.895Z,70.29296875
2022-09-09T08:50:35.750Z,69.23144531
2022-09-09T08:52:21.943Z,69.34960938
2022-09-09T08:52:43.304Z,69.91699219
2022-09-09T08:53:41.467Z,69.76953125
2022-09-09T08:54:52.117Z,70.06835938
2022-09-09T08:54:52.386Z,70.06835938
2022-09-09T08:55:37.910Z,69.60058594
2022-09-09T08:56:38.928Z,69.78710938
2022-09-09T08:57:34.399Z,69.6640625
2022-09-09T08:58:34.827Z,69.39941406
2022-09-09T08:59:30.854Z,69.05175781
2022-09-09T09:00:30.626Z,69.70214844
2022-09-09T09:01:26.100Z,69.80371094
2022-09-09T09:02:29.364Z,68.47363281
2022-09-09T09:03:23.601Z,68.43066406
2022-09-09T09:05:19.759Z,68.55761719
2022-09-09T09:06:20.608Z,68.6171875
2022-09-09T09:07:16.632Z,67.70605469
2022-09-09T09:08:20.312Z,68.55761719
2022-09-09T09:09:13.961Z,68.92773438
2022-09-09T09:10:39.789Z,68.51953125
2022-09-09T09:10:40.591Z,68.51953125
2022-09-09T09:11:14.372Z,67.29101563
2022-09-09T09:12:10.899Z,66.94335938
2022-09-09T09:13:14.530Z,66.36328125
2022-09-09T09:15:09.245Z,66.71289063
2022-09-09T09:16:05.569Z,65.23144531
2022-09-09T09:17:05.590Z,66.27246094
2022-09-09T09:18:01.273Z,67.02441406
2022-09-09T09:18:59.626Z,67.33007813
2022-09-09T09:20:00.791Z,67.50585938
2022-09-09T09:20:57.914Z,66.890625
2022-09-09T09:21:59.067Z,67.62402344
2022-09-09T09:22:55.347Z,66.78417969
2022-09-09T09:23:55.588Z,65.34667969
2022-09-09T09:24:50.863Z,65.74609375
2022-09-09T09:25:53.982Z,66.54785156
2022-09-09T09:26:47.467Z,67.13085938
2022-09-09T09:27:46.013Z,66.08984375
2022-09-09T09:28:45.957Z,66.796875
2022-09-09T09:30:44.248Z,66.89453125
2022-09-09T09:31:04.660Z,64.875
2022-09-09T09:32:02.839Z,64.97949219
2022-09-09T09:32:59.773Z,65.48339844
2022-09-09T09:33:59.937Z,65.31640625
2022-09-09T09:35:57.299Z,64.81152344
2022-09-09T09:36:49.982Z,66.22851563
2022-09-09T09:40:50.032Z,65.12207031
2022-09-09T09:41:50.048Z,65.77734375
2022-09-09T09:42:44.865Z,65.82128906
2022-09-09T09:43:44.813Z,66.27441406
2022-09-09T09:44:43.812Z,65.45507813
2022-09-09T09:45:46.763Z,66.32128906
2022-09-09T09:46:06.786Z,66.32128906
2022-09-09T09:46:16.359Z,66.32128906
2022-09-09T09:46:41.776Z,65.65820313
2022-09-09T09:47:38.167Z,66.27246094
2022-09-09T09:48:37.601Z,66.18066406
2022-09-09T09:50:34.543Z,66.87109375
2022-09-09T09:51:27.100Z,64.51269531
2022-09-09T09:52:26.819Z,64.70507813
2022-09-09T09:53:22.809Z,64.61914063
2022-09-09T09:54:22.207Z,64.70898438
2022-09-09T09:55:17.025Z,64.375
2022-09-09T09:56:20.570Z,63.93554688
2022-09-09T09:57:13.147Z,64.03222656
2022-09-09T09:58:15.170Z,63.88378906
2022-09-09T09:59:17.882Z,64.07421875
2022-09-09T09:59:23.387Z,64.07421875
2022-09-09T09:59:29.673Z,64.07421875
2022-09-09T10:00:09.920Z,64.26464844
2022-09-09T10:01:05.316Z,64.60058594
2022-09-09T10:02:07.359Z,64.79785156
2022-09-09T10:03:00.303Z,65.89453125
2022-09-09T10:03:59.827Z,65.8671875
2022-09-09T10:04:54.459Z,64.06445313
2022-09-09T10:05:53.829Z,63.74316406
2022-09-09T10:06:48.267Z,63.80859375
2022-09-09T10:07:47.901Z,64.84277344
2022-09-09T10:08:44.053Z,63.24707031
2022-09-09T10:09:40.286Z,64.05761719
2022-09-09T10:10:40.185Z,62.10253906
2022-09-09T10:11:34.770Z,62.44921875
2022-09-09T10:12:33.610Z,62.26855469
2022-09-09T10:13:28.240Z,63.59960938
2022-09-09T10:14:28.626Z,64.20898438
2022-09-09T10:15:23.353Z,64.296875
2022-09-09T10:16:25.708Z,65.79003906
2022-09-09T10:17:18.511Z,65.81542969
2022-09-09T10:18:20.504Z,64.8125
2022-09-09T10:20:15.446Z,64.72949219
2022-09-09T10:21:09.730Z,63.69140625
2022-09-09T10:22:33.680Z,64.27050781
2022-09-09T10:23:13.890Z,64.72949219
2022-09-09T10:24:12.005Z,62.60058594
2022-09-09T10:25:09.330Z,62.78515625
2022-09-09T10:26:07.597Z,62.98242188
2022-09-09T10:27:05.755Z,63.23828125
2022-09-09T10:28:06.064Z,66.63671875
2022-09-09T10:29:01.423Z,64.78320313
2022-09-09T10:30:57.674Z,63.01269531
2022-09-09T10:31:55.202Z,63.54199219
2022-09-09T10:32:55.222Z,63.84082031
2022-09-09T10:33:53.235Z,63.45996094
2022-09-09T10:34:50.456Z,63.15039063
2022-09-09T10:35:47.585Z,62.20996094
2022-09-09T10:36:46.908Z,63.18359375
2022-09-09T10:37:44.410Z,62.96582031
2022-09-09T10:38:43.553Z,63.90625
2022-09-09T10:40:39.475Z,60.77734375
2022-09-09T10:41:41.532Z,61.13574219
2022-09-09T10:42:36.818Z,63.26171875
2022-09-09T10:43:39.901Z,63.74121094
2022-09-09T10:44:34.171Z,62.65136719
2022-09-09T10:45:36.289Z,63.3984375
2022-09-09T10:46:29.070Z,61.80371094
2022-09-09T10:47:29.425Z,62.03710938
2022-09-09T10:48:29.347Z,63.55175781
2022-09-09T10:49:24.016Z,63.99023438
2022-09-09T10:50:50.335Z,65.72460938
2022-09-09T10:51:00.024Z,65.72460938
2022-09-09T10:51:29.310Z,61.67773438
2022-09-09T10:52:25.586Z,60.54785156
2022-09-09T10:53:21.543Z,60.48144531
2022-09-09T10:54:27.129Z,61.68652344
2022-09-09T10:56:16.657Z,61.50097656
2022-09-09T10:56:50.908Z,62.92285156
2022-09-09T10:57:48.458Z,60.04492188
2022-09-09T10:58:21.918Z,60.35546875
2022-09-09T10:59:16.893Z,58.99414063
2022-09-09T11:00:16.078Z,59.703125
2022-09-09T11:01:10.703Z,60.42480469
2022-09-09T11:02:10.188Z,60.61425781
2022-09-09T11:03:04.611Z,60.78417969
2022-09-09T11:04:03.891Z,60.32910156
2022-09-09T11:05:57.983Z,61.76269531
2022-09-09T11:06:52.836Z,60.32421875
2022-09-09T11:07:51.893Z,60.64160156
2022-09-09T11:08:47.969Z,61.04003906
2022-09-09T11:09:50.876Z,61.64746094
2022-09-09T11:10:43.692Z,61.36035156
2022-09-09T11:11:45.608Z,60.82128906
2022-09-09T11:12:39.906Z,61.36816406
2022-09-09T11:13:37.395Z,61.52832031
2022-09-09T11:14:37.682Z,62.04101563
2022-09-09T11:15:31.583Z,61.52539063
2022-09-09T11:16:29.606Z,62.109375
2022-09-09T11:17:26.793Z,61.63476563
2022-09-09T11:18:23.676Z,61.8515625
2022-09-09T11:20:20.157Z,62.3203125
2022-09-09T11:21:17.312Z,61.70410156
2022-09-09T11:22:14.043Z,63.52832031
2022-09-09T11:23:10.818Z,62.51855469